Time;durP1;ratioP1;P1;durP2;ratioP2;P2;SDS_P1;SDS_P2;PMS_P1;PMS_P2;Temp;Humidity;BMP_temperature;BMP_pressure;BME280_temperature;BME280_humidity;BME280_pressure;Samples;Min_cycle;Max_cycle;Signal;HPM_P1;HPM_P2
2022/04/30 00:00:35;;;;;;;41.38;26.75;;;10.30;99.90;;;;;;5016071;28;20030;-71
2022/04/30 00:03:01;;;;;;;41.47;27.25;;;10.30;99.90;;;;;;5015681;28;20041;-72
2022/04/30 00:05:32;;;;;;;37.33;25.48;;;10.30;99.90;;;;;;5016274;28;20109;-72
2022/04/30 00:07:59;;;;;;;32.95;21.80;;;10.30;99.90;;;;;;5015810;28;20111;-71
2022/04/30 00:10:26;;;;;;;38.58;21.90;;;10.30;99.90;;;;;;5016198;28;20033;-71
2022/04/30 00:12:53;;;;;;;31.10;19.92;;;10.30;99.90;;;;;;5015984;28;20026;-72
2022/04/30 00:15:20;;;;;;;33.15;21.58;;;10.30;99.90;;;;;;5015711;28;20070;-70
2022/04/30 00:17:51;;;;;;;31.17;21.02;;;10.30;99.90;;;;;;5015911;28;20034;-72
2022/04/30 00:20:17;;;;;;;27.90;16.92;;;10.20;99.90;;;;;;5015542;28;20104;-72
2022/04/30 00:22:44;;;;;;;28.88;17.35;;;10.20;99.90;;;;;;5015760;28;20669;-72
2022/04/30 00:25:10;;;;;;;23.48;14.50;;;10.20;99.90;;;;;;5015505;28;20134;-73
2022/04/30 00:27:36;;;;;;;30.05;16.80;;;10.20;99.90;;;;;;5015487;28;20050;-73
2022/04/30 00:30:03;;;;;;;26.95;16.90;;;10.20;99.90;;;;;;5014290;28;20042;-72
2022/04/30 00:32:30;;;;;;;22.48;15.82;;;10.10;99.90;;;;;;5015556;28;20018;-72
2022/04/30 00:34:56;;;;;;;25.77;17.70;;;10.20;99.90;;;;;;5015458;28;20038;-73
2022/04/30 00:37:22;;;;;;;23.90;15.93;;;10.10;99.90;;;;;;5015212;28;20452;-72
2022/04/30 00:39:48;;;;;;;28.42;17.65;;;10.10;99.90;;;;;;5015571;28;20058;-73
2022/04/30 00:42:14;;;;;;;22.83;16.52;;;10.10;99.90;;;;;;5015480;28;20088;-73
2022/04/30 00:44:40;;;;;;;24.58;16.50;;;10.10;99.90;;;;;;5015030;28;20038;-74
2022/04/30 00:47:06;;;;;;;29.92;18.42;;;10.00;99.90;;;;;;5013921;28;20472;-72
2022/04/30 00:49:32;;;;;;;33.65;18.98;;;9.90;99.90;;;;;;5013954;28;20492;-73
2022/04/30 00:52:02;;;;;;;32.17;19.73;;;9.90;99.90;;;;;;5014316;28;20029;-72
2022/04/30 00:54:33;;;;;;;32.28;20.50;;;9.90;99.90;;;;;;5014007;28;20081;-71
2022/04/30 00:57:02;;;;;;;28.88;19.15;;;9.80;99.90;;;;;;5012513;28;20064;-72
2022/04/30 00:59:33;;;;;;;28.75;19.52;;;9.80;99.90;;;;;;5013840;28;20033;-71
2022/04/30 01:01:59;;;;;;;27.80;17.77;;;9.80;99.90;;;;;;5013697;28;20030;-71
2022/04/30 01:04:44;;;;;;;25.05;16.58;;;9.80;99.90;;;;;;5013938;28;20033;-72
2022/04/30 01:07:10;;;;;;;26.42;18.30;;;9.70;99.90;;;;;;5013861;28;20110;-72
2022/04/30 01:09:42;;;;;;;29.83;19.30;;;9.70;99.90;;;;;;5013786;28;20032;-72
2022/04/30 01:12:10;;;;;;;31.60;22.35;;;9.70;99.90;;;;;;5013789;28;20084;-70
2022/04/30 01:14:39;;;;;;;32.50;21.98;;;9.70;99.90;;;;;;5013392;28;20034;-72
2022/04/30 01:17:09;;;;;;;26.38;19.80;;;9.70;99.90;;;;;;5013767;28;20487;-74
2022/04/30 01:19:49;;;;;;;26.95;18.85;;;9.70;99.90;;;;;;5013484;28;20037;-72
2022/04/30 01:22:34;;;;;;;24.75;15.50;;;9.70;99.90;;;;;;5012375;28;20511;-72
2022/04/30 01:25:02;;;;;;;26.38;16.15;;;9.60;99.90;;;;;;5013212;28;20022;-73
2022/04/30 01:27:29;;;;;;;21.52;14.23;;;9.50;99.90;;;;;;5014922;28;20469;-70
2022/04/30 01:29:59;;;;;;;21.45;14.13;;;9.50;99.90;;;;;;5023823;28;20377;-72
2022/04/30 01:38:01;;;;;;;22.50;14.32;;;9.50;99.90;;;;;;5013475;28;20022;-72
2022/04/30 01:40:29;;;;;;;21.33;14.40;;;9.50;99.90;;;;;;5000240;28;20064;-73
2022/04/30 01:42:58;;;;;;;27.02;17.60;;;9.60;99.90;;;;;;4993660;28;20030;-72
2022/04/30 01:45:25;;;;;;;25.52;17.35;;;9.60;99.90;;;;;;4951660;28;1231646;-72
2022/04/30 01:47:53;;;;;;;24.63;17.02;;;9.50;99.90;;;;;;4994376;28;20488;-72
2022/04/30 01:50:38;;;;;;;22.50;15.25;;;9.60;99.90;;;;;;4994369;28;20101;-72
2022/04/30 01:53:10;;;;;;;24.25;16.27;;;9.60;99.90;;;;;;4996435;28;20029;-72
2022/04/30 01:55:37;;;;;;;19.50;12.43;;;9.60;99.90;;;;;;5013962;28;20042;-73
2022/04/30 01:58:19;;;;;;;22.10;15.05;;;9.50;99.90;;;;;;4993197;28;20488;-71
2022/04/30 02:00:45;;;;;;;22.75;14.70;;;9.40;99.90;;;;;;4993301;28;20053;-72
2022/04/30 02:03:16;;;;;;;22.50;14.90;;;9.40;99.90;;;;;;4995349;28;20022;-71
2022/04/30 02:05:42;;;;;;;20.23;14.57;;;9.30;99.90;;;;;;4993463;28;20038;-67
2022/04/30 02:08:12;;;;;;;21.95;14.65;;;9.30;99.90;;;;;;4994413;28;20030;-72
2022/04/30 02:10:40;;;;;;;21.48;13.65;;;9.40;99.90;;;;;;5008803;28;20037;-72
2022/04/30 02:13:08;;;;;;;20.58;13.60;;;9.40;99.90;;;;;;5013610;28;20033;-73
2022/04/30 02:15:35;;;;;;;25.42;14.35;;;9.40;99.90;;;;;;5014386;28;20119;-71
2022/04/30 02:18:06;;;;;;;22.73;15.52;;;9.40;99.90;;;;;;4996054;28;20029;-71
2022/04/30 02:20:34;;;;;;;19.75;14.10;;;9.40;99.90;;;;;;5026129;28;20091;-72
2022/04/30 02:23:08;;;;;;;23.50;13.68;;;9.50;99.90;;;;;;5033183;28;20021;-71
2022/04/30 02:25:35;;;;;;;19.55;12.30;;;9.40;99.90;;;;;;5033315;28;20018;-70
2022/04/30 02:28:08;;;;;;;19.00;13.73;;;9.40;99.90;;;;;;5033051;28;20467;-72
2022/04/30 02:30:38;;;;;;;20.52;13.20;;;9.30;99.90;;;;;;5030122;28;20032;-72
2022/04/30 02:33:19;;;;;;;20.48;14.38;;;9.30;99.90;;;;;;5019253;28;20034;-72
2022/04/30 02:35:48;;;;;;;21.25;13.15;;;9.30;99.90;;;;;;4996118;28;20045;-72
2022/04/30 02:38:26;;;;;;;20.27;13.60;;;9.30;99.90;;;;;;5025459;28;20025;-70
2022/04/30 02:41:05;;;;;;;22.25;12.80;;;9.20;99.90;;;;;;5013396;28;20037;-71
2022/04/30 02:43:38;;;;;;;19.25;12.25;;;9.30;99.90;;;;;;5024359;28;20040;-71
2022/04/30 02:46:04;;;;;;;20.40;12.43;;;9.30;99.90;;;;;;5012954;28;20062;-72
2022/04/30 02:48:38;;;;;;;12.68;8.50;;;9.30;99.90;;;;;;5013066;28;20038;-71
2022/04/30 02:51:04;;;;;;;14.55;9.43;;;9.30;99.90;;;;;;4956394;28;20031;-72
2022/04/30 02:53:30;;;;;;;15.20;8.75;;;9.30;99.90;;;;;;4973826;28;20027;-70
2022/04/30 02:55:56;;;;;;;14.45;9.23;;;9.20;99.90;;;;;;4973756;28;20493;-70
2022/04/30 03:01:06;;;;;;;18.67;10.65;;;9.10;99.90;;;;;;4980300;28;20102;-72
2022/04/30 03:03:50;;;;;;;22.63;12.57;;;9.10;99.90;;;;;;4975120;28;20485;-69
2022/04/30 03:06:17;;;;;;;19.77;12.18;;;9.00;99.90;;;;;;4972309;28;20027;-72
2022/04/30 03:08:49;;;;;;;17.13;10.63;;;9.00;99.90;;;;;;4976396;28;20027;-73
2022/04/30 03:11:19;;;;;;;17.20;10.82;;;9.10;99.90;;;;;;4972219;28;20031;-73
2022/04/30 03:13:45;;;;;;;16.50;11.13;;;9.10;99.90;;;;;;4974167;28;20404;-73
2022/04/30 03:21:44;;;;;;;23.33;16.80;;;9.00;99.90;;;;;;4971878;28;20041;-72
2022/04/30 03:24:16;;;;;;;26.08;19.98;;;9.00;99.90;;;;;;4971534;28;20089;-70
2022/04/30 03:26:44;;;;;;;27.15;19.42;;;9.00;99.90;;;;;;4971790;28;20033;-72
2022/04/30 03:29:11;;;;;;;29.35;18.38;;;9.00;99.90;;;;;;4971719;28;20097;-70
2022/04/30 03:31:39;;;;;;;30.85;19.80;;;9.00;99.90;;;;;;4971803;28;20034;-72
2022/04/30 03:34:08;;;;;;;26.75;19.65;;;9.10;99.90;;;;;;4974600;28;20029;-72
2022/04/30 03:36:41;;;;;;;26.45;15.48;;;9.00;99.90;;;;;;4989689;28;20026;-71
2022/04/30 03:39:17;;;;;;;29.77;16.60;;;9.10;99.90;;;;;;4974389;28;20026;-72
2022/04/30 03:41:43;;;;;;;20.63;13.38;;;9.10;99.90;;;;;;4973165;28;20043;-71
2022/04/30 03:44:35;;;;;;;19.27;12.60;;;9.20;99.90;;;;;;4970933;28;20102;-72
2022/04/30 03:47:09;;;;;;;24.75;14.85;;;9.20;99.90;;;;;;4988332;28;20407;-72
2022/04/30 03:50:06;;;;;;;20.50;13.88;;;9.20;99.90;;;;;;4993419;28;20117;-72
2022/04/30 03:53:15;;;;;;;29.38;17.73;;;9.10;99.90;;;;;;4993250;28;20421;-67
2022/04/30 03:55:53;;;;;;;23.60;14.50;;;9.30;99.90;;;;;;4990993;28;20129;-72
2022/04/30 03:58:21;;;;;;;18.83;12.02;;;9.30;99.90;;;;;;4993081;28;20053;-72
2022/04/30 04:00:56;;;;;;;23.25;14.90;;;9.30;99.90;;;;;;5009814;28;20125;-72
2022/04/30 04:03:22;;;;;;;19.42;13.23;;;9.90;99.90;;;;;;5012248;28;20026;-72
2022/04/30 04:05:54;;;;;;;19.55;12.07;;;10.40;99.90;;;;;;5012074;28;20053;-72
2022/04/30 04:08:25;;;;;;;22.75;12.95;;;10.80;99.90;;;;;;5011403;28;20033;-73
2022/04/30 04:10:51;;;;;;;19.67;11.65;;;11.20;99.90;;;;;;5011824;28;20057;-73
2022/04/30 04:18:51;;;;;;;20.23;12.02;;;12.60;99.90;;;;;;5011826;28;20026;-72
2022/04/30 04:21:18;;;;;;;18.77;12.02;;;13.20;99.90;;;;;;5011905;28;20034;-73
2022/04/30 04:26:40;;;;;;;16.55;10.52;;;14.30;99.90;;;;;;5011806;28;20404;-73
2022/04/30 04:29:10;;;;;;;15.85;11.15;;;14.90;99.90;;;;;;5010497;28;20427;-73
2022/04/30 04:31:39;;;;;;;21.40;12.98;;;15.50;99.90;;;;;;5011756;28;20049;-73
2022/04/30 04:34:05;;;;;;;20.08;11.90;;;16.30;99.90;;;;;;5009759;28;20445;-72
2022/04/30 04:36:33;;;;;;;19.92;11.98;;;16.50;99.90;;;;;;5011423;28;20124;-73
2022/04/30 04:38:59;;;;;;;17.98;11.15;;;16.90;99.90;;;;;;5012536;28;20434;-73
2022/04/30 04:41:25;;;;;;;18.05;11.05;;;17.30;99.90;;;;;;5013897;28;20076;-73
2022/04/30 04:43:51;;;;;;;18.27;11.70;;;17.30;99.90;;;;;;5014651;28;20026;-73
2022/04/30 04:46:17;;;;;;;16.00;10.85;;;17.20;99.90;;;;;;5014939;28;20496;-73
2022/04/30 04:48:43;;;;;;;22.10;12.90;;;16.70;99.90;;;;;;5014946;28;20034;-72
2022/04/30 04:51:09;;;;;;;18.02;11.23;;;16.80;99.90;;;;;;5015004;28;20025;-73
2022/04/30 04:53:35;;;;;;;18.98;12.75;;;16.70;99.90;;;;;;5014422;28;20385;-72
2022/04/30 04:56:03;;;;;;;20.83;12.68;;;17.20;99.90;;;;;;5015136;28;20042;-73
2022/04/30 04:58:29;;;;;;;21.45;13.52;;;15.70;99.90;;;;;;5014932;28;20391;-72
2022/04/30 05:00:55;;;;;;;25.08;12.75;;;15.30;99.90;;;;;;5014556;28;20165;-70
2022/04/30 05:03:21;;;;;;;20.23;12.93;;;15.00;99.90;;;;;;5014747;28;20101;-72
2022/04/30 05:05:47;;;;;;;23.55;13.30;;;14.80;99.90;;;;;;5014856;28;20025;-72
2022/04/30 05:08:13;;;;;;;20.95;13.57;;;14.60;99.90;;;;;;5014938;28;20032;-72
2022/04/30 05:10:39;;;;;;;26.15;13.80;;;14.50;99.90;;;;;;5014740;28;20033;-71
2022/04/30 05:13:04;;;;;;;27.60;13.35;;;14.30;99.90;;;;;;5014390;28;20026;-71
2022/04/30 05:15:30;;;;;;;21.08;14.05;;;14.30;99.90;;;;;;5014359;28;20046;-72
2022/04/30 05:17:56;;;;;;;20.77;15.02;;;14.10;99.90;;;;;;5014490;28;20021;-70
2022/04/30 05:20:22;;;;;;;21.92;16.00;;;14.10;99.90;;;;;;5013803;28;20113;-70
2022/04/30 05:22:48;;;;;;;28.13;18.60;;;13.90;99.90;;;;;;5014674;28;20149;-72
2022/04/30 05:25:14;;;;;;;35.22;19.08;;;13.90;99.90;;;;;;5012735;28;20034;-72
2022/04/30 05:27:39;;;;;;;32.20;20.30;;;13.80;99.90;;;;;;5014231;28;20022;-72
2022/04/30 05:30:06;;;;;;;23.38;16.45;;;13.80;99.90;;;;;;5014192;28;20116;-72
2022/04/30 05:32:32;;;;;;;30.33;18.77;;;13.60;99.90;;;;;;5014178;28;20080;-67
2022/04/30 05:34:58;;;;;;;43.13;27.30;;;13.40;99.90;;;;;;5014379;28;20037;-72
2022/04/30 05:37:23;;;;;;;26.55;18.73;;;13.40;99.90;;;;;;5013735;28;20112;-72
2022/04/30 05:39:49;;;;;;;28.33;18.42;;;13.30;99.90;;;;;;5013844;28;20030;-72
2022/04/30 05:42:15;;;;;;;19.75;12.77;;;13.30;99.90;;;;;;5013806;28;20030;-72
2022/04/30 05:44:41;;;;;;;20.42;13.35;;;13.30;99.90;;;;;;5014119;28;20040;-72
2022/04/30 05:47:07;;;;;;;21.48;13.65;;;13.20;99.90;;;;;;5014383;28;20030;-73
2022/04/30 05:49:34;;;;;;;21.52;13.07;;;13.20;99.90;;;;;;5013084;28;20029;-72
2022/04/30 05:51:59;;;;;;;20.13;14.43;;;13.20;99.90;;;;;;5013267;28;20022;-72
2022/04/30 05:54:25;;;;;;;27.45;17.65;;;13.30;99.90;;;;;;5013790;28;20048;-69
2022/04/30 05:56:51;;;;;;;31.85;19.00;;;13.20;99.90;;;;;;5013863;28;20014;-72
2022/04/30 05:59:18;;;;;;;37.67;20.80;;;13.20;99.90;;;;;;5013763;28;20451;-72
2022/04/30 06:01:44;;;;;;;24.08;18.40;;;13.30;99.90;;;;;;5013648;28;20068;-70
2022/04/30 06:04:09;;;;;;;61.38;46.42;;;13.50;99.90;;;;;;5013643;28;20428;-72
2022/04/30 06:06:35;;;;;;;54.95;48.15;;;13.50;99.90;;;;;;5013702;28;20048;-72
2022/04/30 06:09:01;;;;;;;48.33;42.95;;;13.50;99.90;;;;;;5013658;28;20373;-72
2022/04/30 06:11:27;;;;;;;37.65;30.85;;;13.50;99.90;;;;;;5013676;28;20053;-72
2022/04/30 06:13:53;;;;;;;26.70;20.17;;;13.50;99.90;;;;;;5013471;28;20062;-72
2022/04/30 06:16:19;;;;;;;34.63;27.55;;;13.50;99.90;;;;;;5013647;28;20439;-71
2022/04/30 06:18:44;;;;;;;51.85;37.85;;;13.60;99.90;;;;;;5013732;28;20026;-71
2022/04/30 06:21:10;;;;;;;41.78;34.88;;;13.60;99.90;;;;;;5013551;28;20026;-73
2022/04/30 06:23:36;;;;;;;38.35;31.27;;;13.60;99.90;;;;;;5013108;28;20022;-73
2022/04/30 06:26:02;;;;;;;25.35;18.98;;;13.80;99.90;;;;;;5013464;28;20026;-72
2022/04/30 06:28:28;;;;;;;24.38;15.85;;;13.90;99.90;;;;;;5020002;28;20017;-72
2022/04/30 06:30:53;;;;;;;26.17;18.63;;;14.00;99.90;;;;;;5022175;28;20045;-70
2022/04/30 06:33:19;;;;;;;25.40;17.45;;;14.20;99.90;;;;;;5015390;28;20037;-72
2022/04/30 06:35:45;;;;;;;20.65;14.35;;;14.40;99.90;;;;;;5012261;28;20040;-71
2022/04/30 06:38:11;;;;;;;29.38;21.27;;;14.50;99.90;;;;;;5011877;28;20349;-72
2022/04/30 06:40:37;;;;;;;26.25;18.25;;;14.80;99.90;;;;;;5012401;28;20068;-71
2022/04/30 06:43:03;;;;;;;23.30;16.17;;;15.40;99.90;;;;;;5012464;28;20072;-73
2022/04/30 06:45:29;;;;;;;23.67;15.30;;;15.60;99.90;;;;;;5012535;28;20077;-68
2022/04/30 06:47:55;;;;;;;24.88;15.68;;;15.80;99.90;;;;;;5008949;28;20042;-72
2022/04/30 06:50:21;;;;;;;22.65;16.35;;;16.00;99.90;;;;;;4992081;28;20093;-66
2022/04/30 06:58:16;;;;;;;19.33;13.30;;;16.60;99.90;;;;;;4995464;28;20022;-72
2022/04/30 07:03:24;;;;;;;24.25;15.70;;;16.80;99.90;;;;;;5008375;28;20021;-72
2022/04/30 07:05:51;;;;;;;24.50;17.58;;;17.10;99.90;;;;;;5022060;28;20049;-73
2022/04/30 07:08:17;;;;;;;21.73;14.90;;;17.00;99.90;;;;;;4998661;28;20037;-72
2022/04/30 07:10:43;;;;;;;21.88;15.50;;;17.30;99.90;;;;;;4991076;28;20331;-67
2022/04/30 07:13:09;;;;;;;23.10;14.93;;;17.70;99.90;;;;;;4991136;28;20040;-67
2022/04/30 07:15:34;;;;;;;24.75;16.42;;;17.80;99.90;;;;;;4990938;28;20045;-72
2022/04/30 07:18:00;;;;;;;24.55;15.00;;;18.10;99.90;;;;;;4996522;28;20393;-72
2022/04/30 07:20:26;;;;;;;23.30;15.25;;;18.20;99.90;;;;;;5004136;28;20032;-72
2022/04/30 07:22:52;;;;;;;24.70;17.15;;;18.30;99.90;;;;;;5011682;28;20113;-72
2022/04/30 07:25:18;;;;;;;25.30;15.52;;;18.30;99.90;;;;;;5011243;28;20022;-73
2022/04/30 07:27:44;;;;;;;24.67;16.17;;;17.80;99.90;;;;;;5011575;28;20026;-72
2022/04/30 07:30:10;;;;;;;24.80;13.77;;;18.30;99.90;;;;;;5011934;28;20045;-72
2022/04/30 07:32:40;;;;;;;24.73;15.98;;;18.60;99.90;;;;;;5011577;28;20025;-73
2022/04/30 07:35:06;;;;;;;27.58;14.23;;;19.00;99.90;;;;;;5013673;28;20033;-73
2022/04/30 07:37:32;;;;;;;22.85;14.82;;;19.30;99.90;;;;;;5013673;28;20468;-69
2022/04/30 07:39:58;;;;;;;18.58;13.00;;;19.50;99.90;;;;;;5010679;28;20026;-72
2022/04/30 07:42:24;;;;;;;20.33;13.77;;;19.30;99.90;;;;;;5018842;28;20087;-73
2022/04/30 07:44:50;;;;;;;22.83;13.60;;;19.30;99.90;;;;;;5017215;28;20053;-70
2022/04/30 07:47:15;;;;;;;17.30;9.95;;;19.30;99.90;;;;;;5005507;28;20112;-69
2022/04/30 07:49:41;;;;;;;34.97;25.65;;;19.10;97.90;;;;;;5005284;28;20040;-73
2022/04/30 07:52:08;;;;;;;18.73;12.10;;;19.20;99.70;;;;;;4991170;28;20057;-71
2022/04/30 07:54:34;;;;;;;16.60;11.20;;;18.90;99.50;;;;;;4991830;28;20503;-71
2022/04/30 07:57:00;;;;;;;15.70;9.93;;;19.20;99.60;;;;;;4974032;28;20026;-71
2022/04/30 07:59:26;;;;;;;17.50;10.05;;;19.20;99.90;;;;;;4996355;28;20025;-72
2022/04/30 08:01:52;;;;;;;18.77;10.18;;;19.50;98.70;;;;;;4999752;28;20109;-71
2022/04/30 08:04:18;;;;;;;20.25;10.52;;;19.60;99.50;;;;;;5005561;28;20030;-71
2022/04/30 08:06:45;;;;;;;18.73;11.20;;;19.70;99.90;;;;;;5010966;28;20026;-71
2022/04/30 08:09:10;;;;;;;16.73;10.60;;;19.90;99.90;;;;;;5011179;28;20108;-71
2022/04/30 08:11:40;;;;;;;16.13;10.35;;;20.00;99.90;;;;;;5010919;28;20101;-69
2022/04/30 08:14:05;;;;;;;16.63;10.30;;;20.20;98.90;;;;;;4999999;28;20058;-67
2022/04/30 08:16:31;;;;;;;17.25;11.65;;;19.40;99.90;;;;;;4995452;28;20065;-72
2022/04/30 08:18:58;;;;;;;21.60;11.52;;;19.20;99.90;;;;;;4995774;28;20034;-72
2022/04/30 08:21:24;;;;;;;17.55;12.48;;;18.90;99.90;;;;;;4995135;28;20113;-72
2022/04/30 08:23:51;;;;;;;18.13;11.15;;;18.60;99.90;;;;;;4980599;28;20042;-71
2022/04/30 08:26:19;;;;;;;22.55;13.38;;;19.20;99.90;;;;;;4977646;28;20627;-73
2022/04/30 08:28:45;;;;;;;18.73;12.63;;;18.90;99.90;;;;;;4994692;28;20105;-73
2022/04/30 08:31:11;;;;;;;15.18;8.75;;;19.00;99.90;;;;;;4995061;28;20030;-72
2022/04/30 08:33:37;;;;;;;15.73;8.88;;;19.30;99.90;;;;;;4994992;28;20030;-71
2022/04/30 08:36:04;;;;;;;20.50;13.43;;;19.90;99.90;;;;;;4994833;28;20121;-73
2022/04/30 08:38:29;;;;;;;21.55;12.68;;;20.00;99.90;;;;;;4995085;28;20105;-72
2022/04/30 08:40:55;;;;;;;20.13;13.80;;;19.60;99.90;;;;;;4995141;28;20023;-73
2022/04/30 08:43:21;;;;;;;20.10;11.45;;;19.50;99.90;;;;;;4994763;28;20028;-72
2022/04/30 08:45:47;;;;;;;18.88;11.98;;;19.50;99.90;;;;;;4994716;28;20054;-72
2022/04/30 08:48:15;;;;;;;18.85;11.57;;;19.70;99.90;;;;;;4994758;28;20193;-73
2022/04/30 08:50:43;;;;;;;20.55;11.02;;;19.30;99.90;;;;;;4994981;28;20034;-73
2022/04/30 08:53:10;;;;;;;16.13;10.90;;;19.40;99.90;;;;;;4994634;28;20030;-72
2022/04/30 08:55:37;;;;;;;17.83;10.82;;;19.50;99.90;;;;;;4994822;28;20465;-72
2022/04/30 08:58:03;;;;;;;16.95;11.13;;;19.20;99.90;;;;;;4994106;28;20073;-72
2022/04/30 09:00:29;;;;;;;19.25;11.38;;;19.10;99.90;;;;;;4994514;28;20042;-72
2022/04/30 09:02:58;;;;;;;24.48;13.43;;;19.40;99.90;;;;;;5002174;28;20061;-69
2022/04/30 09:05:36;;;;;;;18.80;11.73;;;19.50;99.90;;;;;;5013323;28;20022;-72
2022/04/30 09:08:05;;;;;;;19.80;11.32;;;19.70;99.90;;;;;;5008248;28;20025;-72
2022/04/30 09:10:34;;;;;;;17.77;11.68;;;19.90;99.30;;;;;;5014115;28;20025;-73
2022/04/30 09:13:06;;;;;;;18.95;9.90;;;20.20;98.50;;;;;;5013795;28;20060;-71
2022/04/30 09:15:41;;;;;;;;;;;20.30;98.20;;;;;;5014410;28;20128;-73
2022/04/30 09:18:09;;;;;;;15.60;8.93;;;20.50;96.80;;;;;;5013673;28;19944;-72
2022/04/30 09:20:53;;;;;;;12.57;8.52;;;19.90;95.20;;;;;;5013345;28;20539;-73
2022/04/30 09:23:31;;;;;;;12.98;8.05;;;20.30;95.90;;;;;;5013083;28;20037;-74
2022/04/30 09:25:58;;;;;;;15.32;9.35;;;20.70;97.90;;;;;;5013654;28;20022;-72
2022/04/30 09:28:25;;;;;;;14.07;9.30;;;20.40;97.10;;;;;;5013582;28;20081;-73
2022/04/30 09:31:02;;;;;;;14.45;7.97;;;20.40;93.80;;;;;;5012993;28;20036;-73
2022/04/30 09:33:28;;;;;;;11.35;7.60;;;20.40;95.30;;;;;;5013174;28;20033;-73
2022/04/30 09:38:45;;;;;;;10.63;6.10;;;20.70;98.50;;;;;;5013503;28;20108;-73
2022/04/30 09:41:11;;;;;;;10.70;6.65;;;20.70;90.40;;;;;;5013556;28;20117;-73
2022/04/30 09:43:37;;;;;;;10.20;6.00;;;21.10;97.90;;;;;;5013095;28;20085;-73
2022/04/30 09:46:07;;;;;;;11.05;7.22;;;21.60;94.40;;;;;;5012949;28;20056;-73
2022/04/30 09:54:20;;;;;;;13.80;6.82;;;22.00;93.00;;;;;;4990960;28;20058;-73
2022/04/30 09:56:49;;;;;;;12.40;7.30;;;21.80;88.10;;;;;;4974597;28;20121;-72
2022/04/30 09:59:16;;;;;;;12.02;7.07;;;21.60;91.70;;;;;;4990959;28;20117;-74
2022/04/30 10:01:44;;;;;;;12.07;6.38;;;21.10;88.50;;;;;;4990641;28;20033;-73
2022/04/30 10:04:12;;;;;;;10.40;5.70;;;21.30;92.20;;;;;;4990296;28;20049;-72
2022/04/30 10:06:43;;;;;;;10.65;5.55;;;21.30;87.90;;;;;;4989829;28;20035;-72
2022/04/30 10:09:12;;;;;;;11.75;6.10;;;21.20;89.80;;;;;;4990210;28;20096;-73
2022/04/30 10:11:56;;;;;;;14.15;6.13;;;20.90;91.20;;;;;;4990424;28;20105;-74
2022/04/30 10:14:47;;;;;;;13.55;6.93;;;21.00;93.10;;;;;;4990102;28;20038;-72
2022/04/30 10:17:17;;;;;;;14.02;8.35;;;21.50;95.50;;;;;;4987034;28;20033;-73
2022/04/30 10:20:00;;;;;;;14.65;7.88;;;21.20;91.90;;;;;;4972062;28;20068;-72
2022/04/30 10:22:26;;;;;;;13.13;8.20;;;21.40;91.70;;;;;;4989750;28;20112;-72
2022/04/30 10:24:57;;;;;;;11.32;6.57;;;21.10;89.10;;;;;;4994088;28;20049;-72
2022/04/30 10:27:23;;;;;;;10.80;6.22;;;21.50;90.70;;;;;;5011523;28;20030;-72
2022/04/30 10:29:56;;;;;;;8.13;5.93;;;21.30;85.90;;;;;;5011700;28;20034;-71
2022/04/30 10:32:33;;;;;;;14.45;7.57;;;21.10;89.80;;;;;;5014939;28;20467;-70
2022/04/30 10:35:05;;;;;;;13.23;8.10;;;21.20;92.50;;;;;;5014811;28;20046;-69
2022/04/30 10:37:38;;;;;;;7.43;4.90;;;21.50;91.00;;;;;;5011261;28;20061;-67
2022/04/30 10:40:08;;;;;;;9.27;5.38;;;21.40;86.90;;;;;;5011185;28;20030;-67
2022/04/30 10:42:45;;;;;;;17.42;5.55;;;21.50;85.10;;;;;;5010393;28;20022;-73
2022/04/30 10:45:15;;;;;;;9.77;6.07;;;21.80;89.10;;;;;;5011338;28;20054;-73
2022/04/30 10:47:55;;;;;;;12.20;6.63;;;22.00;86.00;;;;;;4994999;28;20521;-72
2022/04/30 10:50:21;;;;;;;9.35;6.70;;;22.10;86.90;;;;;;4994328;28;20050;-73
2022/04/30 10:52:49;;;;;;;9.75;5.75;;;22.20;87.60;;;;;;4996319;28;20559;-72
2022/04/30 10:55:22;;;;;;;10.30;5.13;;;22.10;83.70;;;;;;5004157;28;20036;-73
2022/04/30 10:57:48;;;;;;;9.75;5.13;;;21.20;81.20;;;;;;5009620;28;20113;-72
2022/04/30 11:00:14;;;;;;;7.95;5.28;;;21.60;79.60;;;;;;5008731;28;20132;-73
2022/04/30 11:02:40;;;;;;;9.05;5.55;;;21.30;78.90;;;;;;5010640;28;20081;-73
2022/04/30 11:05:18;;;;;;;11.32;6.03;;;21.40;80.40;;;;;;5010668;28;20025;-72
2022/04/30 11:07:45;;;;;;;8.30;5.47;;;21.40;81.70;;;;;;5010611;28;20033;-72
2022/04/30 11:10:11;;;;;;;13.35;6.80;;;21.80;80.30;;;;;;5011151;28;20030;-72
2022/04/30 11:12:37;;;;;;;9.73;5.75;;;21.40;78.10;;;;;;5013922;28;20083;-72
2022/04/30 11:15:04;;;;;;;29.88;14.05;;;21.50;79.00;;;;;;5016098;28;20037;-70
2022/04/30 11:17:31;;;;;;;12.18;5.70;;;21.50;79.50;;;;;;5009534;28;20026;-72
2022/04/30 11:19:58;;;;;;;12.23;7.03;;;21.60;82.30;;;;;;5021577;28;20116;-72
2022/04/30 11:22:23;;;;;;;8.65;5.60;;;21.90;80.30;;;;;;5011472;28;20105;-72
2022/04/30 11:24:50;;;;;;;9.77;5.28;;;22.00;81.40;;;;;;5010699;28;20357;-70
2022/04/30 11:27:15;;;;;;;9.82;5.00;;;21.90;78.30;;;;;;5010730;28;20076;-73
2022/04/30 11:29:50;;;;;;;11.45;5.45;;;21.70;77.60;;;;;;5029940;28;20064;-73
2022/04/30 11:32:21;;;;;;;14.90;7.25;;;21.70;78.70;;;;;;5031430;28;20030;-71
2022/04/30 11:34:48;;;;;;;7.88;4.95;;;21.90;82.90;;;;;;5030425;28;20033;-72
2022/04/30 11:37:14;;;;;;;7.25;4.68;;;22.00;81.70;;;;;;4999859;28;20038;-73
2022/04/30 11:39:41;;;;;;;9.48;5.28;;;21.30;75.90;;;;;;5011688;28;20056;-68
2022/04/30 11:42:07;;;;;;;6.82;4.30;;;21.70;81.40;;;;;;5012498;28;20026;-72
2022/04/30 11:44:34;;;;;;;8.32;4.35;;;21.70;75.40;;;;;;4996057;28;20034;-73
2022/04/30 11:47:00;;;;;;;9.73;6.25;;;21.70;79.70;;;;;;5031162;28;20040;-72
2022/04/30 11:49:27;;;;;;;7.63;5.07;;;21.90;79.40;;;;;;5037813;28;20048;-71
2022/04/30 11:52:17;;;;;;;7.72;4.20;;;22.20;82.60;;;;;;5006659;28;20068;-72
2022/04/30 11:54:44;;;;;;;19.95;7.40;;;21.70;77.80;;;;;;4945767;28;20436;-71
2022/04/30 11:57:13;;;;;;;8.75;4.72;;;22.10;81.70;;;;;;4955073;28;20039;-71
2022/04/30 11:59:41;;;;;;;8.50;5.03;;;22.10;77.80;;;;;;4964999;28;20121;-70
2022/04/30 12:02:11;;;;;;;8.48;5.30;;;22.00;75.70;;;;;;4969452;28;20031;-67
2022/04/30 12:04:42;;;;;;;19.08;8.00;;;21.80;77.70;;;;;;4966165;28;20111;-72
2022/04/30 12:07:10;;;;;;;10.85;6.97;;;21.80;80.30;;;;;;4967125;28;20061;-71
2022/04/30 12:09:37;;;;;;;10.70;6.78;;;21.70;83.30;;;;;;4971307;28;20023;-71
2022/04/30 12:12:18;;;;;;;10.25;6.22;;;21.60;80.20;;;;;;4973287;28;20039;-72
2022/04/30 12:14:46;;;;;;;11.05;6.95;;;21.30;84.60;;;;;;4957689;28;20066;-72
2022/04/30 12:17:11;;;;;;;11.57;6.75;;;21.30;80.80;;;;;;4967109;28;20039;-72
2022/04/30 12:25:10;;;;;;;15.98;8.63;;;21.20;80.40;;;;;;4952765;28;20047;-71
2022/04/30 12:27:37;;;;;;;9.20;6.38;;;21.00;77.10;;;;;;4953029;28;20035;-72
2022/04/30 12:30:15;;;;;;;16.08;7.93;;;21.30;79.80;;;;;;4949385;28;20477;-70
2022/04/30 12:32:52;;;;;;;12.70;6.70;;;20.80;78.70;;;;;;4991532;28;20050;-70
2022/04/30 12:35:35;;;;;;;10.63;6.25;;;20.90;80.50;;;;;;5024341;28;20116;-72
2022/04/30 12:38:08;;;;;;;11.38;6.25;;;20.70;80.40;;;;;;5010752;28;20026;-72
2022/04/30 12:40:38;;;;;;;10.43;6.55;;;20.80;83.50;;;;;;5015266;28;20648;-72
2022/04/30 12:43:05;;;;;;;7.88;5.18;;;20.90;81.90;;;;;;5015143;28;20033;-73
2022/04/30 12:45:31;;;;;;;9.25;6.57;;;20.80;79.60;;;;;;5013959;28;20046;-73
2022/04/30 12:47:58;;;;;;;11.70;7.20;;;21.10;81.60;;;;;;5013204;28;20030;-77
2022/04/30 12:50:25;;;;;;;11.00;6.40;;;21.40;84.70;;;;;;5017223;28;20112;-77
2022/04/30 12:52:51;;;;;;;13.00;7.78;;;21.50;81.50;;;;;;5014842;28;20026;-76
2022/04/30 12:55:18;;;;;;;8.43;5.50;;;21.60;81.40;;;;;;5014601;28;20041;-76
2022/04/30 12:57:45;;;;;;;9.88;6.28;;;21.70;79.80;;;;;;5014844;28;20113;-70
2022/04/30 13:00:12;;;;;;;8.88;6.07;;;21.50;79.30;;;;;;4996337;28;20030;-77
2022/04/30 13:02:39;;;;;;;11.23;7.80;;;21.70;81.40;;;;;;5014609;28;20022;-77
2022/04/30 13:05:09;;;;;;;7.20;5.35;;;21.50;79.60;;;;;;5014564;28;20029;-75
2022/04/30 13:07:37;;;;;;;10.77;5.25;;;21.60;78.80;;;;;;5013956;28;20120;-70
2022/04/30 13:15:34;;;;;;;8.65;5.57;;;21.20;79.40;;;;;;5014193;28;20041;-72
2022/04/30 13:18:01;;;;;;;11.40;6.50;;;20.60;79.50;;;;;;5014085;28;20036;-71
2022/04/30 13:20:28;;;;;;;12.77;7.68;;;20.50;80.80;;;;;;5013526;28;20044;-76
2022/04/30 13:22:56;;;;;;;14.05;8.60;;;20.70;80.80;;;;;;5012536;28;20096;-76
2022/04/30 13:25:29;;;;;;;11.70;6.78;;;20.60;80.50;;;;;;5012848;28;20091;-75
2022/04/30 13:27:56;;;;;;;7.43;5.50;;;20.80;82.00;;;;;;5014182;28;20022;-76
2022/04/30 13:30:23;;;;;;;12.80;6.72;;;21.20;81.70;;;;;;5014171;28;20034;-75